sensor_id;sensor_type;location;lat;lon;timestamp;P1;durP1;ratioP1;P2;durP2;ratioP2
42754;SDS011;28407;51.830;5.684;2022-12-28T00:00:17;5.90;;;3.97;;
42754;SDS011;28407;51.830;5.684;2022-12-28T00:02:18;5.38;;;4.57;;
42754;SDS011;28407;51.830;5.684;2022-12-28T00:04:18;5.30;;;3.80;;
42754;SDS011;28407;51.830;5.684;2022-12-28T00:06:20;4.75;;;4.35;;
42754;SDS011;28407;51.830;5.684;2022-12-28T00:08:21;5.72;;;3.97;;
42754;SDS011;28407;51.830;5.684;2022-12-28T00:10:22;5.82;;;4.35;;
42754;SDS011;28407;51.830;5.684;2022-12-28T00:12:23;6.60;;;5.15;;
42754;SDS011;28407;51.830;5.684;2022-12-28T00:14:23;7.40;;;4.35;;
42754;SDS011;28407;51.830;5.684;2022-12-28T00:18:35;5.50;;;4.45;;
42754;SDS011;28407;51.830;5.684;2022-12-28T00:20:36;5.07;;;3.92;;
42754;SDS011;28407;51.830;5.684;2022-12-28T00:22:37;9.57;;;4.40;;
42754;SDS011;28407;51.830;5.684;2022-12-28T00:24:37;5.07;;;4.15;;
42754;SDS011;28407;51.830;5.684;2022-12-28T00:26:38;6.18;;;4.55;;
42754;SDS011;28407;51.830;5.684;2022-12-28T00:28:39;7.55;;;4.88;;
42754;SDS011;28407;51.830;5.684;2022-12-28T00:30:40;5.47;;;4.60;;
42754;SDS011;28407;51.830;5.684;2022-12-28T00:32:40;7.32;;;4.20;;
42754;SDS011;28407;51.830;5.684;2022-12-28T00:34:41;6.03;;;3.88;;
42754;SDS011;28407;51.830;5.684;2022-12-28T00:36:41;7.53;;;4.45;;
42754;SDS011;28407;51.830;5.684;2022-12-28T00:38:42;5.93;;;4.63;;
42754;SDS011;28407;51.830;5.684;2022-12-28T00:40:43;4.15;;;3.75;;
42754;SDS011;28407;51.830;5.684;2022-12-28T00:42:44;5.03;;;3.85;;
42754;SDS011;28407;51.830;5.684;2022-12-28T00:44:44;5.78;;;4.30;;
42754;SDS011;28407;51.830;5.684;2022-12-28T00:46:45;8.63;;;4.93;;
42754;SDS011;28407;51.830;5.684;2022-12-28T00:48:45;4.55;;;3.97;;
42754;SDS011;28407;51.830;5.684;2022-12-28T00:50:46;4.72;;;3.47;;
42754;SDS011;28407;51.830;5.684;2022-12-28T00:52:47;5.30;;;4.80;;
42754;SDS011;28407;51.830;5.684;2022-12-28T00:54:47;4.68;;;3.70;;
42754;SDS011;28407;51.830;5.684;2022-12-28T00:56:48;4.93;;;4.15;;
42754;SDS011;28407;51.830;5.684;2022-12-28T00:58:48;6.63;;;4.32;;
42754;SDS011;28407;51.830;5.684;2022-12-28T01:00:49;5.70;;;3.85;;
42754;SDS011;28407;51.830;5.684;2022-12-28T01:02:50;5.68;;;4.15;;
42754;SDS011;28407;51.830;5.684;2022-12-28T01:04:50;5.28;;;4.53;;
42754;SDS011;28407;51.830;5.684;2022-12-28T01:06:51;4.35;;;3.95;;
42754;SDS011;28407;51.830;5.684;2022-12-28T01:08:52;4.07;;;3.67;;
42754;SDS011;28407;51.830;5.684;2022-12-28T01:10:52;4.55;;;4.15;;
42754;SDS011;28407;51.830;5.684;2022-12-28T01:12:53;5.38;;;4.07;;
42754;SDS011;28407;51.830;5.684;2022-12-28T01:14:54;6.18;;;4.13;;
42754;SDS011;28407;51.830;5.684;2022-12-28T01:16:54;4.40;;;4.00;;
42754;SDS011;28407;51.830;5.684;2022-12-28T01:18:57;5.60;;;4.88;;
42754;SDS011;28407;51.830;5.684;2022-12-28T01:20:59;4.93;;;3.78;;
42754;SDS011;28407;51.830;5.684;2022-12-28T01:22:59;5.60;;;3.92;;
42754;SDS011;28407;51.830;5.684;2022-12-28T01:25:00;4.75;;;3.67;;
42754;SDS011;28407;51.830;5.684;2022-12-28T01:27:02;6.55;;;3.88;;
42754;SDS011;28407;51.830;5.684;2022-12-28T01:29:02;5.25;;;4.57;;
42754;SDS011;28407;51.830;5.684;2022-12-28T01:31:12;7.18;;;4.57;;
42754;SDS011;28407;51.830;5.684;2022-12-28T01:33:15;6.03;;;4.30;;
42754;SDS011;28407;51.830;5.684;2022-12-28T01:35:15;4.95;;;4.35;;
42754;SDS011;28407;51.830;5.684;2022-12-28T01:37:16;4.97;;;4.25;;
42754;SDS011;28407;51.830;5.684;2022-12-28T01:39:16;5.70;;;4.95;;
42754;SDS011;28407;51.830;5.684;2022-12-28T01:41:18;4.70;;;4.25;;
42754;SDS011;28407;51.830;5.684;2022-12-28T01:43:19;4.78;;;4.00;;
42754;SDS011;28407;51.830;5.684;2022-12-28T01:45:33;6.82;;;4.60;;
42754;SDS011;28407;51.830;5.684;2022-12-28T01:47:34;6.22;;;4.38;;
42754;SDS011;28407;51.830;5.684;2022-12-28T01:49:38;5.82;;;4.53;;
42754;SDS011;28407;51.830;5.684;2022-12-28T01:52:07;6.13;;;4.60;;
42754;SDS011;28407;51.830;5.684;2022-12-28T01:54:11;7.07;;;3.97;;
42754;SDS011;28407;51.830;5.684;2022-12-28T01:56:12;8.88;;;5.10;;
42754;SDS011;28407;51.830;5.684;2022-12-28T01:58:14;7.07;;;4.63;;
42754;SDS011;28407;51.830;5.684;2022-12-28T02:00:19;4.68;;;4.18;;
42754;SDS011;28407;51.830;5.684;2022-12-28T02:02:20;6.03;;;4.45;;
42754;SDS011;28407;51.830;5.684;2022-12-28T02:04:22;4.38;;;3.95;;
42754;SDS011;28407;51.830;5.684;2022-12-28T02:06:24;5.35;;;4.53;;
42754;SDS011;28407;51.830;5.684;2022-12-28T02:08:31;4.40;;;4.00;;
42754;SDS011;28407;51.830;5.684;2022-12-28T02:10:37;4.70;;;4.30;;
42754;SDS011;28407;51.830;5.684;2022-12-28T02:12:40;4.40;;;4.00;;
42754;SDS011;28407;51.830;5.684;2022-12-28T02:14:41;5.20;;;4.63;;
42754;SDS011;28407;51.830;5.684;2022-12-28T02:16:42;5.78;;;4.65;;
42754;SDS011;28407;51.830;5.684;2022-12-28T02:18:43;5.07;;;4.45;;
42754;SDS011;28407;51.830;5.684;2022-12-28T02:20:53;6.32;;;5.68;;
42754;SDS011;28407;51.830;5.684;2022-12-28T02:23:19;4.90;;;4.40;;
42754;SDS011;28407;51.830;5.684;2022-12-28T02:25:48;7.00;;;5.60;;
42754;SDS011;28407;51.830;5.684;2022-12-28T02:30:24;4.93;;;4.25;;
42754;SDS011;28407;51.830;5.684;2022-12-28T02:32:30;4.97;;;4.13;;
42754;SDS011;28407;51.830;5.684;2022-12-28T02:34:53;5.88;;;3.90;;
42754;SDS011;28407;51.830;5.684;2022-12-28T02:36:59;5.15;;;4.28;;
42754;SDS011;28407;51.830;5.684;2022-12-28T02:39:14;4.82;;;4.32;;
42754;SDS011;28407;51.830;5.684;2022-12-28T02:41:27;4.22;;;3.83;;
42754;SDS011;28407;51.830;5.684;2022-12-28T02:43:30;5.47;;;3.92;;
42754;SDS011;28407;51.830;5.684;2022-12-28T02:45:37;4.75;;;4.25;;
42754;SDS011;28407;51.830;5.684;2022-12-28T02:47:58;4.53;;;4.13;;
42754;SDS011;28407;51.830;5.684;2022-12-28T02:50:18;5.45;;;4.65;;
42754;SDS011;28407;51.830;5.684;2022-12-28T02:52:21;7.28;;;4.35;;
42754;SDS011;28407;51.830;5.684;2022-12-28T02:54:49;6.35;;;4.72;;
42754;SDS011;28407;51.830;5.684;2022-12-28T02:59:37;5.13;;;4.63;;
42754;SDS011;28407;51.830;5.684;2022-12-28T03:04:05;11.52;;;6.05;;
42754;SDS011;28407;51.830;5.684;2022-12-28T03:11:13;8.52;;;5.47;;
42754;SDS011;28407;51.830;5.684;2022-12-28T03:15:44;5.10;;;4.60;;
42754;SDS011;28407;51.830;5.684;2022-12-28T03:17:45;5.38;;;4.75;;
42754;SDS011;28407;51.830;5.684;2022-12-28T03:20:08;5.30;;;4.38;;
42754;SDS011;28407;51.830;5.684;2022-12-28T03:22:49;5.35;;;4.55;;
42754;SDS011;28407;51.830;5.684;2022-12-28T03:25:12;6.97;;;4.50;;
42754;SDS011;28407;51.830;5.684;2022-12-28T03:27:33;4.68;;;4.13;;
42754;SDS011;28407;51.830;5.684;2022-12-28T03:30:00;4.30;;;3.90;;
42754;SDS011;28407;51.830;5.684;2022-12-28T03:32:32;4.68;;;3.85;;
42754;SDS011;28407;51.830;5.684;2022-12-28T03:34:33;4.57;;;4.13;;
42754;SDS011;28407;51.830;5.684;2022-12-28T03:41:12;5.88;;;4.30;;
42754;SDS011;28407;51.830;5.684;2022-12-28T03:43:23;5.18;;;4.25;;
42754;SDS011;28407;51.830;5.684;2022-12-28T03:45:50;4.28;;;3.90;;
42754;SDS011;28407;51.830;5.684;2022-12-28T03:47:55;4.35;;;3.90;;
42754;SDS011;28407;51.830;5.684;2022-12-28T03:49:57;4.70;;;4.13;;
42754;SDS011;28407;51.830;5.684;2022-12-28T03:54:01;6.10;;;4.28;;
42754;SDS011;28407;51.830;5.684;2022-12-28T03:56:05;5.00;;;4.22;;
42754;SDS011;28407;51.830;5.684;2022-12-28T03:58:08;4.20;;;3.80;;
42754;SDS011;28407;51.830;5.684;2022-12-28T04:00:10;6.97;;;4.47;;
42754;SDS011;28407;51.830;5.684;2022-12-28T04:02:15;4.85;;;4.35;;
42754;SDS011;28407;51.830;5.684;2022-12-28T04:04:16;4.50;;;4.10;;
42754;SDS011;28407;51.830;5.684;2022-12-28T04:06:18;4.82;;;4.10;;
42754;SDS011;28407;51.830;5.684;2022-12-28T04:08:19;5.85;;;5.25;;
42754;SDS011;28407;51.830;5.684;2022-12-28T04:10:20;5.53;;;4.53;;
42754;SDS011;28407;51.830;5.684;2022-12-28T04:12:21;5.43;;;4.60;;
42754;SDS011;28407;51.830;5.684;2022-12-28T04:14:42;5.18;;;4.68;;
42754;SDS011;28407;51.830;5.684;2022-12-28T04:16:43;6.65;;;4.72;;
42754;SDS011;28407;51.830;5.684;2022-12-28T04:18:48;4.20;;;3.85;;
42754;SDS011;28407;51.830;5.684;2022-12-28T04:20:49;6.50;;;4.47;;
42754;SDS011;28407;51.830;5.684;2022-12-28T04:22:50;5.20;;;4.75;;
42754;SDS011;28407;51.830;5.684;2022-12-28T04:24:51;5.13;;;4.25;;
42754;SDS011;28407;51.830;5.684;2022-12-28T04:26:51;5.20;;;4.43;;
42754;SDS011;28407;51.830;5.684;2022-12-28T04:28:52;4.97;;;4.22;;
42754;SDS011;28407;51.830;5.684;2022-12-28T04:31:07;5.10;;;4.53;;
42754;SDS011;28407;51.830;5.684;2022-12-28T04:33:10;5.68;;;4.20;;
42754;SDS011;28407;51.830;5.684;2022-12-28T04:35:12;4.82;;;4.38;;
42754;SDS011;28407;51.830;5.684;2022-12-28T04:37:19;5.55;;;4.95;;
42754;SDS011;28407;51.830;5.684;2022-12-28T04:39:20;5.15;;;4.47;;
42754;SDS011;28407;51.830;5.684;2022-12-28T04:41:21;6.22;;;4.63;;
42754;SDS011;28407;51.830;5.684;2022-12-28T04:43:21;6.25;;;4.88;;
42754;SDS011;28407;51.830;5.684;2022-12-28T04:45:22;6.63;;;5.05;;
42754;SDS011;28407;51.830;5.684;2022-12-28T04:47:22;4.88;;;4.40;;
42754;SDS011;28407;51.830;5.684;2022-12-28T04:49:23;6.35;;;4.70;;
42754;SDS011;28407;51.830;5.684;2022-12-28T04:51:25;5.30;;;4.80;;
42754;SDS011;28407;51.830;5.684;2022-12-28T04:53:27;5.60;;;4.82;;
42754;SDS011;28407;51.830;5.684;2022-12-28T04:55:27;5.20;;;4.70;;
42754;SDS011;28407;51.830;5.684;2022-12-28T04:57:28;5.82;;;5.22;;
42754;SDS011;28407;51.830;5.684;2022-12-28T04:59:28;7.97;;;5.05;;
42754;SDS011;28407;51.830;5.684;2022-12-28T05:01:29;5.70;;;5.20;;
42754;SDS011;28407;51.830;5.684;2022-12-28T05:03:29;5.32;;;4.53;;
42754;SDS011;28407;51.830;5.684;2022-12-28T05:05:31;5.50;;;4.35;;
42754;SDS011;28407;51.830;5.684;2022-12-28T05:07:32;6.53;;;5.13;;
42754;SDS011;28407;51.830;5.684;2022-12-28T05:09:32;6.32;;;5.22;;
42754;SDS011;28407;51.830;5.684;2022-12-28T05:11:33;5.32;;;4.40;;
42754;SDS011;28407;51.830;5.684;2022-12-28T05:13:33;5.18;;;4.78;;
42754;SDS011;28407;51.830;5.684;2022-12-28T05:15:34;5.78;;;4.97;;
42754;SDS011;28407;51.830;5.684;2022-12-28T05:17:37;6.38;;;4.80;;
42754;SDS011;28407;51.830;5.684;2022-12-28T05:19:37;4.93;;;4.50;;
42754;SDS011;28407;51.830;5.684;2022-12-28T05:21:38;5.30;;;4.78;;
42754;SDS011;28407;51.830;5.684;2022-12-28T05:23:39;8.20;;;4.90;;
42754;SDS011;28407;51.830;5.684;2022-12-28T05:25:39;5.38;;;4.88;;
42754;SDS011;28407;51.830;5.684;2022-12-28T05:27:40;5.22;;;4.78;;
42754;SDS011;28407;51.830;5.684;2022-12-28T05:29:40;4.80;;;4.30;;
42754;SDS011;28407;51.830;5.684;2022-12-28T05:31:41;5.20;;;4.70;;
42754;SDS011;28407;51.830;5.684;2022-12-28T05:33:42;4.95;;;4.45;;
42754;SDS011;28407;51.830;5.684;2022-12-28T05:35:43;5.38;;;4.88;;
42754;SDS011;28407;51.830;5.684;2022-12-28T05:37:44;6.65;;;5.07;;
42754;SDS011;28407;51.830;5.684;2022-12-28T05:39:44;5.85;;;4.70;;
42754;SDS011;28407;51.830;5.684;2022-12-28T05:41:45;5.28;;;4.60;;
42754;SDS011;28407;51.830;5.684;2022-12-28T05:43:45;6.57;;;4.85;;
42754;SDS011;28407;51.830;5.684;2022-12-28T05:45:47;6.07;;;4.55;;
42754;SDS011;28407;51.830;5.684;2022-12-28T05:47:47;6.53;;;4.88;;
42754;SDS011;28407;51.830;5.684;2022-12-28T05:49:48;5.25;;;4.15;;
42754;SDS011;28407;51.830;5.684;2022-12-28T05:51:49;5.55;;;4.70;;
42754;SDS011;28407;51.830;5.684;2022-12-28T05:53:52;4.80;;;4.07;;
42754;SDS011;28407;51.830;5.684;2022-12-28T05:55:58;4.72;;;4.32;;
42754;SDS011;28407;51.830;5.684;2022-12-28T05:58:06;5.05;;;4.55;;
42754;SDS011;28407;51.830;5.684;2022-12-28T06:00:08;5.30;;;4.80;;
42754;SDS011;28407;51.830;5.684;2022-12-28T06:02:12;4.93;;;4.03;;
42754;SDS011;28407;51.830;5.684;2022-12-28T06:04:15;4.93;;;3.85;;
42754;SDS011;28407;51.830;5.684;2022-12-28T06:06:17;4.60;;;3.67;;
42754;SDS011;28407;51.830;5.684;2022-12-28T06:08:18;4.72;;;4.32;;
42754;SDS011;28407;51.830;5.684;2022-12-28T06:10:19;5.43;;;4.05;;
42754;SDS011;28407;51.830;5.684;2022-12-28T06:12:20;5.22;;;4.50;;
42754;SDS011;28407;51.830;5.684;2022-12-28T06:14:20;4.13;;;3.83;;
42754;SDS011;28407;51.830;5.684;2022-12-28T06:16:23;4.78;;;3.97;;
42754;SDS011;28407;51.830;5.684;2022-12-28T06:18:29;5.00;;;4.50;;
42754;SDS011;28407;51.830;5.684;2022-12-28T06:20:30;4.97;;;3.70;;
42754;SDS011;28407;51.830;5.684;2022-12-28T06:22:30;3.80;;;3.50;;
42754;SDS011;28407;51.830;5.684;2022-12-28T06:24:31;5.50;;;4.63;;
42754;SDS011;28407;51.830;5.684;2022-12-28T06:26:32;4.63;;;3.75;;
42754;SDS011;28407;51.830;5.684;2022-12-28T06:30:37;4.55;;;3.88;;
42754;SDS011;28407;51.830;5.684;2022-12-28T06:32:37;5.28;;;3.63;;
42754;SDS011;28407;51.830;5.684;2022-12-28T06:34:38;4.65;;;4.20;;
42754;SDS011;28407;51.830;5.684;2022-12-28T06:36:40;3.95;;;3.60;;
42754;SDS011;28407;51.830;5.684;2022-12-28T06:38:42;3.80;;;3.40;;
42754;SDS011;28407;51.830;5.684;2022-12-28T06:40:43;4.70;;;4.18;;
42754;SDS011;28407;51.830;5.684;2022-12-28T06:42:43;3.55;;;3.25;;
42754;SDS011;28407;51.830;5.684;2022-12-28T06:44:44;3.60;;;3.30;;
42754;SDS011;28407;51.830;5.684;2022-12-28T06:46:45;3.67;;;3.35;;
42754;SDS011;28407;51.830;5.684;2022-12-28T06:48:45;3.55;;;3.25;;
42754;SDS011;28407;51.830;5.684;2022-12-28T06:50:59;3.70;;;3.40;;
42754;SDS011;28407;51.830;5.684;2022-12-28T06:53:01;3.75;;;3.45;;
42754;SDS011;28407;51.830;5.684;2022-12-28T06:55:02;4.57;;;3.90;;
42754;SDS011;28407;51.830;5.684;2022-12-28T06:57:03;3.60;;;3.30;;
42754;SDS011;28407;51.830;5.684;2022-12-28T06:59:04;3.70;;;3.40;;
42754;SDS011;28407;51.830;5.684;2022-12-28T07:01:06;3.67;;;3.33;;
42754;SDS011;28407;51.830;5.684;2022-12-28T07:03:07;3.67;;;3.17;;
42754;SDS011;28407;51.830;5.684;2022-12-28T07:05:08;4.15;;;3.83;;
42754;SDS011;28407;51.830;5.684;2022-12-28T07:07:08;3.83;;;3.30;;
42754;SDS011;28407;51.830;5.684;2022-12-28T07:09:11;3.53;;;3.22;;
42754;SDS011;28407;51.830;5.684;2022-12-28T07:11:14;4.53;;;4.13;;
42754;SDS011;28407;51.830;5.684;2022-12-28T07:13:17;4.57;;;3.83;;
42754;SDS011;28407;51.830;5.684;2022-12-28T07:15:17;4.00;;;3.60;;
42754;SDS011;28407;51.830;5.684;2022-12-28T07:17:18;4.43;;;4.00;;
42754;SDS011;28407;51.830;5.684;2022-12-28T07:19:18;5.07;;;3.63;;
42754;SDS011;28407;51.830;5.684;2022-12-28T07:21:20;4.30;;;3.90;;
42754;SDS011;28407;51.830;5.684;2022-12-28T07:23:26;3.58;;;3.30;;
42754;SDS011;28407;51.830;5.684;2022-12-28T07:25:32;5.03;;;4.63;;
42754;SDS011;28407;51.830;5.684;2022-12-28T07:27:39;3.95;;;3.65;;
42754;SDS011;28407;51.830;5.684;2022-12-28T07:29:40;4.30;;;3.50;;
42754;SDS011;28407;51.830;5.684;2022-12-28T07:31:41;3.90;;;3.33;;
42754;SDS011;28407;51.830;5.684;2022-12-28T07:33:42;3.85;;;3.55;;
42754;SDS011;28407;51.830;5.684;2022-12-28T07:35:43;3.40;;;3.10;;
42754;SDS011;28407;51.830;5.684;2022-12-28T07:37:50;4.22;;;3.60;;
42754;SDS011;28407;51.830;5.684;2022-12-28T07:39:55;3.63;;;3.33;;
42754;SDS011;28407;51.830;5.684;2022-12-28T07:41:56;4.30;;;4.00;;
42754;SDS011;28407;51.830;5.684;2022-12-28T07:43:57;3.70;;;3.38;;
42754;SDS011;28407;51.830;5.684;2022-12-28T07:46:21;3.95;;;3.53;;
42754;SDS011;28407;51.830;5.684;2022-12-28T07:48:26;3.75;;;3.45;;
42754;SDS011;28407;51.830;5.684;2022-12-28T07:50:36;4.18;;;3.78;;
42754;SDS011;28407;51.830;5.684;2022-12-28T07:52:43;4.43;;;3.55;;
42754;SDS011;28407;51.830;5.684;2022-12-28T07:54:46;4.80;;;4.25;;
42754;SDS011;28407;51.830;5.684;2022-12-28T07:56:50;4.82;;;4.13;;
42754;SDS011;28407;51.830;5.684;2022-12-28T07:58:53;4.43;;;3.55;;
42754;SDS011;28407;51.830;5.684;2022-12-28T08:01:12;36.97;;;5.05;;
42754;SDS011;28407;51.830;5.684;2022-12-28T08:03:14;3.65;;;3.35;;
42754;SDS011;28407;51.830;5.684;2022-12-28T08:05:15;4.18;;;3.67;;
42754;SDS011;28407;51.830;5.684;2022-12-28T08:07:16;3.85;;;3.50;;
42754;SDS011;28407;51.830;5.684;2022-12-28T08:09:20;5.35;;;3.95;;
42754;SDS011;28407;51.830;5.684;2022-12-28T08:11:24;4.38;;;3.63;;
42754;SDS011;28407;51.830;5.684;2022-12-28T08:13:26;4.53;;;4.10;;
42754;SDS011;28407;51.830;5.684;2022-12-28T08:15:30;4.35;;;3.60;;
42754;SDS011;28407;51.830;5.684;2022-12-28T08:17:30;4.28;;;3.97;;
42754;SDS011;28407;51.830;5.684;2022-12-28T08:19:31;3.50;;;3.20;;
42754;SDS011;28407;51.830;5.684;2022-12-28T08:21:32;4.13;;;3.72;;
42754;SDS011;28407;51.830;5.684;2022-12-28T08:23:35;4.32;;;3.92;;
42754;SDS011;28407;51.830;5.684;2022-12-28T08:25:35;3.95;;;3.60;;
42754;SDS011;28407;51.830;5.684;2022-12-28T08:27:36;4.82;;;4.32;;
42754;SDS011;28407;51.830;5.684;2022-12-28T08:29:37;5.28;;;4.43;;
42754;SDS011;28407;51.830;5.684;2022-12-28T08:31:38;6.75;;;4.22;;
42754;SDS011;28407;51.830;5.684;2022-12-28T08:33:41;4.30;;;4.00;;
42754;SDS011;28407;51.830;5.684;2022-12-28T08:35:42;4.47;;;3.92;;
42754;SDS011;28407;51.830;5.684;2022-12-28T08:37:42;5.82;;;3.85;;
42754;SDS011;28407;51.830;5.684;2022-12-28T08:39:43;4.10;;;3.70;;
42754;SDS011;28407;51.830;5.684;2022-12-28T08:41:43;4.28;;;3.88;;
42754;SDS011;28407;51.830;5.684;2022-12-28T08:43:44;4.18;;;3.78;;
42754;SDS011;28407;51.830;5.684;2022-12-28T08:45:54;4.05;;;3.55;;
42754;SDS011;28407;51.830;5.684;2022-12-28T08:47:59;4.40;;;3.97;;
42754;SDS011;28407;51.830;5.684;2022-12-28T08:49:59;4.03;;;3.63;;
42754;SDS011;28407;51.830;5.684;2022-12-28T08:52:00;3.90;;;3.60;;
42754;SDS011;28407;51.830;5.684;2022-12-28T08:54:01;3.40;;;3.10;;
42754;SDS011;28407;51.830;5.684;2022-12-28T08:58:11;3.35;;;3.05;;
42754;SDS011;28407;51.830;5.684;2022-12-28T09:00:12;3.67;;;3.38;;
42754;SDS011;28407;51.830;5.684;2022-12-28T09:02:13;4.35;;;3.55;;
42754;SDS011;28407;51.830;5.684;2022-12-28T09:04:16;4.18;;;3.78;;
42754;SDS011;28407;51.830;5.684;2022-12-28T09:06:22;5.07;;;4.13;;
42754;SDS011;28407;51.830;5.684;2022-12-28T09:08:25;4.45;;;3.83;;
42754;SDS011;28407;51.830;5.684;2022-12-28T09:10:25;3.88;;;3.30;;
42754;SDS011;28407;51.830;5.684;2022-12-28T09:12:26;4.53;;;3.58;;
42754;SDS011;28407;51.830;5.684;2022-12-28T09:14:26;4.30;;;4.00;;
42754;SDS011;28407;51.830;5.684;2022-12-28T09:16:27;4.53;;;3.72;;
42754;SDS011;28407;51.830;5.684;2022-12-28T09:18:28;3.65;;;3.35;;
42754;SDS011;28407;51.830;5.684;2022-12-28T09:20:28;5.43;;;3.50;;
42754;SDS011;28407;51.830;5.684;2022-12-28T09:22:29;5.53;;;3.45;;
42754;SDS011;28407;51.830;5.684;2022-12-28T09:24:30;4.85;;;4.18;;
42754;SDS011;28407;51.830;5.684;2022-12-28T09:26:33;7.00;;;4.82;;
42754;SDS011;28407;51.830;5.684;2022-12-28T09:28:37;4.72;;;4.18;;
42754;SDS011;28407;51.830;5.684;2022-12-28T09:30:38;4.35;;;3.40;;
42754;SDS011;28407;51.830;5.684;2022-12-28T09:32:40;4.28;;;3.80;;
42754;SDS011;28407;51.830;5.684;2022-12-28T09:34:40;5.25;;;4.07;;
42754;SDS011;28407;51.830;5.684;2022-12-28T09:36:42;3.83;;;3.40;;
42754;SDS011;28407;51.830;5.684;2022-12-28T09:38:44;4.35;;;3.55;;
42754;SDS011;28407;51.830;5.684;2022-12-28T09:40:45;5.05;;;3.90;;
42754;SDS011;28407;51.830;5.684;2022-12-28T09:42:45;7.13;;;3.83;;
42754;SDS011;28407;51.830;5.684;2022-12-28T09:44:48;4.53;;;4.07;;
42754;SDS011;28407;51.830;5.684;2022-12-28T09:49:09;4.93;;;3.38;;
42754;SDS011;28407;51.830;5.684;2022-12-28T09:51:17;7.68;;;5.15;;
42754;SDS011;28407;51.830;5.684;2022-12-28T09:53:27;5.15;;;3.90;;
42754;SDS011;28407;51.830;5.684;2022-12-28T09:55:31;4.70;;;4.30;;
42754;SDS011;28407;51.830;5.684;2022-12-28T09:57:35;4.60;;;3.45;;
42754;SDS011;28407;51.830;5.684;2022-12-28T09:59:38;4.53;;;4.07;;
42754;SDS011;28407;51.830;5.684;2022-12-28T10:01:39;4.18;;;3.78;;
42754;SDS011;28407;51.830;5.684;2022-12-28T10:03:42;5.82;;;4.40;;
42754;SDS011;28407;51.830;5.684;2022-12-28T10:05:44;10.95;;;5.65;;
42754;SDS011;28407;51.830;5.684;2022-12-28T10:07:45;4.07;;;3.70;;
42754;SDS011;28407;51.830;5.684;2022-12-28T10:09:46;3.75;;;3.40;;
42754;SDS011;28407;51.830;5.684;2022-12-28T10:11:47;3.87;;;3.47;;
42754;SDS011;28407;51.830;5.684;2022-12-28T10:13:51;4.65;;;3.53;;
42754;SDS011;28407;51.830;5.684;2022-12-28T10:15:55;4.32;;;3.60;;
42754;SDS011;28407;51.830;5.684;2022-12-28T10:17:56;3.80;;;3.22;;
42754;SDS011;28407;51.830;5.684;2022-12-28T10:19:57;3.90;;;3.50;;
42754;SDS011;28407;51.830;5.684;2022-12-28T10:21:59;3.90;;;3.50;;
42754;SDS011;28407;51.830;5.684;2022-12-28T10:24:03;4.22;;;3.20;;
42754;SDS011;28407;51.830;5.684;2022-12-28T10:26:06;4.50;;;3.97;;
42754;SDS011;28407;51.830;5.684;2022-12-28T10:28:11;5.18;;;3.95;;
42754;SDS011;28407;51.830;5.684;2022-12-28T10:30:15;4.10;;;3.72;;
42754;SDS011;28407;51.830;5.684;2022-12-28T10:32:18;4.97;;;3.55;;
42754;SDS011;28407;51.830;5.684;2022-12-28T10:34:19;6.40;;;3.60;;
42754;SDS011;28407;51.830;5.684;2022-12-28T10:36:21;5.53;;;3.42;;
42754;SDS011;28407;51.830;5.684;2022-12-28T10:38:30;3.67;;;3.38;;
42754;SDS011;28407;51.830;5.684;2022-12-28T10:40:34;3.58;;;3.28;;
42754;SDS011;28407;51.830;5.684;2022-12-28T10:42:38;3.50;;;3.20;;
42754;SDS011;28407;51.830;5.684;2022-12-28T10:44:41;5.30;;;3.58;;
42754;SDS011;28407;51.830;5.684;2022-12-28T10:46:49;4.38;;;3.10;;
42754;SDS011;28407;51.830;5.684;2022-12-28T10:49:00;4.95;;;3.30;;
42754;SDS011;28407;51.830;5.684;2022-12-28T10:51:18;3.20;;;2.90;;
42754;SDS011;28407;51.830;5.684;2022-12-28T10:58:20;2.90;;;2.70;;
42754;SDS011;28407;51.830;5.684;2022-12-28T11:00:22;4.20;;;3.10;;
42754;SDS011;28407;51.830;5.684;2022-12-28T11:04:31;2.80;;;2.60;;
42754;SDS011;28407;51.830;5.684;2022-12-28T11:09:12;2.95;;;2.70;;
42754;SDS011;28407;51.830;5.684;2022-12-28T11:11:21;3.17;;;2.90;;
42754;SDS011;28407;51.830;5.684;2022-12-28T11:13:22;3.08;;;2.67;;
42754;SDS011;28407;51.830;5.684;2022-12-28T11:15:24;2.83;;;2.63;;
42754;SDS011;28407;51.830;5.684;2022-12-28T11:17:32;3.28;;;2.97;;
42754;SDS011;28407;51.830;5.684;2022-12-28T11:19:35;3.10;;;2.90;;
42754;SDS011;28407;51.830;5.684;2022-12-28T11:21:36;3.70;;;3.33;;
42754;SDS011;28407;51.830;5.684;2022-12-28T11:23:36;2.80;;;2.60;;
42754;SDS011;28407;51.830;5.684;2022-12-28T11:25:38;3.45;;;3.15;;
42754;SDS011;28407;51.830;5.684;2022-12-28T11:27:40;2.70;;;2.50;;
42754;SDS011;28407;51.830;5.684;2022-12-28T11:29:42;2.72;;;2.53;;
42754;SDS011;28407;51.830;5.684;2022-12-28T11:31:48;2.53;;;2.33;;
42754;SDS011;28407;51.830;5.684;2022-12-28T11:33:59;7.57;;;2.75;;
42754;SDS011;28407;51.830;5.684;2022-12-28T11:36:04;2.83;;;2.55;;
42754;SDS011;28407;51.830;5.684;2022-12-28T11:38:11;2.78;;;2.58;;
42754;SDS011;28407;51.830;5.684;2022-12-28T11:42:53;3.53;;;2.63;;
42754;SDS011;28407;51.830;5.684;2022-12-28T11:44:55;2.67;;;2.47;;
42754;SDS011;28407;51.830;5.684;2022-12-28T11:47:03;3.40;;;3.13;;
42754;SDS011;28407;51.830;5.684;2022-12-28T11:51:25;3.33;;;3.00;;
42754;SDS011;28407;51.830;5.684;2022-12-28T11:55:44;4.70;;;3.63;;
42754;SDS011;28407;51.830;5.684;2022-12-28T11:57:57;3.15;;;2.53;;
42754;SDS011;28407;51.830;5.684;2022-12-28T12:02:37;3.08;;;2.78;;
42754;SDS011;28407;51.830;5.684;2022-12-28T12:04:40;3.33;;;2.88;;
42754;SDS011;28407;51.830;5.684;2022-12-28T12:08:46;3.28;;;2.97;;
42754;SDS011;28407;51.830;5.684;2022-12-28T12:10:49;3.50;;;3.20;;
42754;SDS011;28407;51.830;5.684;2022-12-28T12:15:31;3.75;;;3.45;;
42754;SDS011;28407;51.830;5.684;2022-12-28T12:20:04;3.42;;;3.08;;
42754;SDS011;28407;51.830;5.684;2022-12-28T12:22:28;3.45;;;2.72;;
42754;SDS011;28407;51.830;5.684;2022-12-28T12:24:41;4.93;;;3.10;;
42754;SDS011;28407;51.830;5.684;2022-12-28T12:26:50;3.70;;;3.20;;
42754;SDS011;28407;51.830;5.684;2022-12-28T12:28:55;3.22;;;2.92;;
42754;SDS011;28407;51.830;5.684;2022-12-28T12:31:02;4.10;;;3.40;;
42754;SDS011;28407;51.830;5.684;2022-12-28T12:33:10;3.28;;;2.97;;
42754;SDS011;28407;51.830;5.684;2022-12-28T12:35:19;3.40;;;3.10;;
42754;SDS011;28407;51.830;5.684;2022-12-28T12:42:21;3.88;;;3.13;;
42754;SDS011;28407;51.830;5.684;2022-12-28T12:44:38;5.20;;;3.33;;
42754;SDS011;28407;51.830;5.684;2022-12-28T12:46:54;4.80;;;3.10;;
42754;SDS011;28407;51.830;5.684;2022-12-28T12:54:27;4.35;;;3.05;;
42754;SDS011;28407;51.830;5.684;2022-12-28T12:56:39;3.70;;;3.25;;
42754;SDS011;28407;51.830;5.684;2022-12-28T13:01:21;3.50;;;2.92;;
42754;SDS011;28407;51.830;5.684;2022-12-28T13:03:44;4.78;;;3.38;;
42754;SDS011;28407;51.830;5.684;2022-12-28T13:05:50;4.13;;;3.58;;
42754;SDS011;28407;51.830;5.684;2022-12-28T13:07:53;3.38;;;2.72;;
42754;SDS011;28407;51.830;5.684;2022-12-28T13:09:56;3.75;;;3.10;;
42754;SDS011;28407;51.830;5.684;2022-12-28T13:11:59;3.42;;;3.13;;
42754;SDS011;28407;51.830;5.684;2022-12-28T13:14:01;4.13;;;3.72;;
42754;SDS011;28407;51.830;5.684;2022-12-28T13:16:14;5.22;;;3.08;;
42754;SDS011;28407;51.830;5.684;2022-12-28T13:18:17;3.92;;;3.30;;
42754;SDS011;28407;51.830;5.684;2022-12-28T13:20:19;6.88;;;3.10;;
42754;SDS011;28407;51.830;5.684;2022-12-28T13:22:24;4.90;;;3.55;;
42754;SDS011;28407;51.830;5.684;2022-12-28T13:24:29;3.72;;;2.88;;
42754;SDS011;28407;51.830;5.684;2022-12-28T13:26:34;5.15;;;3.25;;
42754;SDS011;28407;51.830;5.684;2022-12-28T13:31:04;3.20;;;2.90;;
42754;SDS011;28407;51.830;5.684;2022-12-28T13:33:18;7.30;;;3.63;;
42754;SDS011;28407;51.830;5.684;2022-12-28T13:37:22;3.10;;;2.80;;
42754;SDS011;28407;51.830;5.684;2022-12-28T13:39:24;4.07;;;3.65;;
42754;SDS011;28407;51.830;5.684;2022-12-28T13:41:25;4.22;;;2.97;;